sensor_id;sensor_type;location;lat;lon;timestamp;P1;durP1;ratioP1;P2;durP2;ratioP2
84275;SDS011;74432;51.212;3.254;2023-12-22T00:02:19;19.63;;;3.55;;
84275;SDS011;74432;51.212;3.254;2023-12-22T00:04:45;23.00;;;4.55;;
84275;SDS011;74432;51.212;3.254;2023-12-22T00:07:11;19.95;;;3.83;;
84275;SDS011;74432;51.212;3.254;2023-12-22T00:09:37;20.08;;;3.90;;
84275;SDS011;74432;51.212;3.254;2023-12-22T00:12:02;22.35;;;3.75;;
84275;SDS011;74432;51.212;3.254;2023-12-22T00:14:29;19.58;;;3.35;;
84275;SDS011;74432;51.212;3.254;2023-12-22T00:16:54;29.05;;;3.75;;
84275;SDS011;74432;51.212;3.254;2023-12-22T00:19:20;24.25;;;4.47;;
84275;SDS011;74432;51.212;3.254;2023-12-22T00:21:45;11.43;;;3.17;;
84275;SDS011;74432;51.212;3.254;2023-12-22T00:24:11;22.35;;;3.85;;
84275;SDS011;74432;51.212;3.254;2023-12-22T00:26:37;25.75;;;4.25;;
84275;SDS011;74432;51.212;3.254;2023-12-22T00:29:02;25.30;;;4.50;;
84275;SDS011;74432;51.212;3.254;2023-12-22T00:31:28;14.80;;;3.38;;
84275;SDS011;74432;51.212;3.254;2023-12-22T00:33:54;25.50;;;3.97;;
84275;SDS011;74432;51.212;3.254;2023-12-22T00:36:19;20.55;;;3.25;;
84275;SDS011;74432;51.212;3.254;2023-12-22T00:38:49;16.23;;;3.63;;
84275;SDS011;74432;51.212;3.254;2023-12-22T00:41:15;23.05;;;3.80;;
84275;SDS011;74432;51.212;3.254;2023-12-22T00:43:40;22.33;;;4.05;;
84275;SDS011;74432;51.212;3.254;2023-12-22T00:46:06;12.55;;;3.03;;
84275;SDS011;74432;51.212;3.254;2023-12-22T00:48:32;17.85;;;3.80;;
84275;SDS011;74432;51.212;3.254;2023-12-22T00:50:57;21.83;;;3.78;;
84275;SDS011;74432;51.212;3.254;2023-12-22T00:53:23;24.65;;;4.28;;
84275;SDS011;74432;51.212;3.254;2023-12-22T00:55:48;20.15;;;3.88;;
84275;SDS011;74432;51.212;3.254;2023-12-22T00:58:14;22.45;;;4.45;;
84275;SDS011;74432;51.212;3.254;2023-12-22T01:00:40;18.50;;;4.05;;
84275;SDS011;74432;51.212;3.254;2023-12-22T01:03:05;21.60;;;3.70;;
84275;SDS011;74432;51.212;3.254;2023-12-22T01:05:31;22.35;;;3.85;;
84275;SDS011;74432;51.212;3.254;2023-12-22T01:07:57;23.13;;;4.05;;
84275;SDS011;74432;51.212;3.254;2023-12-22T01:10:22;21.42;;;3.83;;
84275;SDS011;74432;51.212;3.254;2023-12-22T01:12:48;17.25;;;3.50;;
84275;SDS011;74432;51.212;3.254;2023-12-22T01:15:13;16.75;;;2.90;;
84275;SDS011;74432;51.212;3.254;2023-12-22T01:17:39;14.75;;;3.20;;
84275;SDS011;74432;51.212;3.254;2023-12-22T01:20:05;15.55;;;2.63;;
84275;SDS011;74432;51.212;3.254;2023-12-22T01:22:31;18.40;;;3.42;;
84275;SDS011;74432;51.212;3.254;2023-12-22T01:24:58;14.70;;;3.60;;
84275;SDS011;74432;51.212;3.254;2023-12-22T01:27:24;14.88;;;3.10;;
84275;SDS011;74432;51.212;3.254;2023-12-22T01:29:50;18.83;;;2.85;;
84275;SDS011;74432;51.212;3.254;2023-12-22T01:32:16;19.98;;;4.28;;
84275;SDS011;74432;51.212;3.254;2023-12-22T01:34:41;15.38;;;3.00;;
84275;SDS011;74432;51.212;3.254;2023-12-22T01:37:07;13.55;;;3.05;;
84275;SDS011;74432;51.212;3.254;2023-12-22T01:39:34;15.65;;;2.80;;
84275;SDS011;74432;51.212;3.254;2023-12-22T01:42:00;10.77;;;2.30;;
84275;SDS011;74432;51.212;3.254;2023-12-22T01:44:25;20.00;;;2.53;;
84275;SDS011;74432;51.212;3.254;2023-12-22T01:46:51;16.40;;;3.85;;
84275;SDS011;74432;51.212;3.254;2023-12-22T01:49:17;19.80;;;3.78;;
84275;SDS011;74432;51.212;3.254;2023-12-22T01:51:45;19.15;;;3.35;;
84275;SDS011;74432;51.212;3.254;2023-12-22T01:54:10;27.13;;;3.95;;
84275;SDS011;74432;51.212;3.254;2023-12-22T01:56:40;23.25;;;3.38;;
84275;SDS011;74432;51.212;3.254;2023-12-22T01:59:05;25.15;;;3.60;;
84275;SDS011;74432;51.212;3.254;2023-12-22T02:01:31;20.65;;;3.28;;
84275;SDS011;74432;51.212;3.254;2023-12-22T02:03:58;17.92;;;3.65;;
84275;SDS011;74432;51.212;3.254;2023-12-22T02:06:24;18.55;;;3.30;;
84275;SDS011;74432;51.212;3.254;2023-12-22T02:08:50;22.85;;;4.10;;
84275;SDS011;74432;51.212;3.254;2023-12-22T02:11:16;22.08;;;3.97;;
84275;SDS011;74432;51.212;3.254;2023-12-22T02:13:44;27.55;;;4.63;;
84275;SDS011;74432;51.212;3.254;2023-12-22T02:16:12;26.27;;;4.90;;
84275;SDS011;74432;51.212;3.254;2023-12-22T02:18:56;25.60;;;3.83;;
84275;SDS011;74432;51.212;3.254;2023-12-22T02:21:29;26.83;;;4.50;;
84275;SDS011;74432;51.212;3.254;2023-12-22T02:23:54;23.08;;;4.15;;
84275;SDS011;74432;51.212;3.254;2023-12-22T02:26:23;22.98;;;3.85;;
84275;SDS011;74432;51.212;3.254;2023-12-22T02:28:53;25.75;;;4.35;;
84275;SDS011;74432;51.212;3.254;2023-12-22T02:31:22;22.65;;;4.35;;
84275;SDS011;74432;51.212;3.254;2023-12-22T02:34:00;26.55;;;3.38;;
84275;SDS011;74432;51.212;3.254;2023-12-22T02:36:28;18.00;;;4.72;;
84275;SDS011;74432;51.212;3.254;2023-12-22T02:38:56;23.70;;;4.25;;
84275;SDS011;74432;51.212;3.254;2023-12-22T02:41:23;31.52;;;4.40;;
84275;SDS011;74432;51.212;3.254;2023-12-22T02:43:48;25.88;;;4.38;;
84275;SDS011;74432;51.212;3.254;2023-12-22T02:46:14;33.25;;;5.10;;
84275;SDS011;74432;51.212;3.254;2023-12-22T02:48:40;35.97;;;4.85;;
84275;SDS011;74432;51.212;3.254;2023-12-22T02:51:06;27.00;;;4.13;;
84275;SDS011;74432;51.212;3.254;2023-12-22T02:53:32;30.27;;;4.43;;
84275;SDS011;74432;51.212;3.254;2023-12-22T02:55:57;31.63;;;4.57;;
84275;SDS011;74432;51.212;3.254;2023-12-22T02:58:26;25.13;;;4.60;;
84275;SDS011;74432;51.212;3.254;2023-12-22T03:00:51;27.05;;;4.45;;
84275;SDS011;74432;51.212;3.254;2023-12-22T03:03:17;25.85;;;4.80;;
84275;SDS011;74432;51.212;3.254;2023-12-22T03:05:43;27.95;;;5.40;;
84275;SDS011;74432;51.212;3.254;2023-12-22T03:08:08;23.83;;;4.75;;
84275;SDS011;74432;51.212;3.254;2023-12-22T03:10:34;25.65;;;3.83;;
84275;SDS011;74432;51.212;3.254;2023-12-22T03:13:00;26.40;;;5.30;;
84275;SDS011;74432;51.212;3.254;2023-12-22T03:15:25;32.00;;;4.70;;
84275;SDS011;74432;51.212;3.254;2023-12-22T03:17:51;24.48;;;4.03;;
84275;SDS011;74432;51.212;3.254;2023-12-22T03:20:17;33.67;;;4.50;;
84275;SDS011;74432;51.212;3.254;2023-12-22T03:22:43;30.58;;;4.95;;
84275;SDS011;74432;51.212;3.254;2023-12-22T03:25:08;30.20;;;4.88;;
84275;SDS011;74432;51.212;3.254;2023-12-22T03:27:34;21.52;;;4.25;;
84275;SDS011;74432;51.212;3.254;2023-12-22T03:30:00;28.77;;;4.13;;
84275;SDS011;74432;51.212;3.254;2023-12-22T03:32:26;25.80;;;4.85;;
84275;SDS011;74432;51.212;3.254;2023-12-22T03:34:52;26.65;;;5.38;;
84275;SDS011;74432;51.212;3.254;2023-12-22T03:37:18;32.60;;;5.63;;
84275;SDS011;74432;51.212;3.254;2023-12-22T03:39:43;32.70;;;4.78;;
84275;SDS011;74432;51.212;3.254;2023-12-22T03:42:09;32.80;;;4.80;;
84275;SDS011;74432;51.212;3.254;2023-12-22T03:44:35;30.17;;;5.82;;
84275;SDS011;74432;51.212;3.254;2023-12-22T03:47:00;32.80;;;5.18;;
84275;SDS011;74432;51.212;3.254;2023-12-22T03:49:26;31.60;;;4.50;;
84275;SDS011;74432;51.212;3.254;2023-12-22T03:51:52;27.83;;;5.25;;
84275;SDS011;74432;51.212;3.254;2023-12-22T03:54:17;34.83;;;5.22;;
84275;SDS011;74432;51.212;3.254;2023-12-22T03:56:43;30.50;;;5.60;;
84275;SDS011;74432;51.212;3.254;2023-12-22T03:59:09;34.42;;;5.72;;
84275;SDS011;74432;51.212;3.254;2023-12-22T04:01:35;30.85;;;5.28;;
84275;SDS011;74432;51.212;3.254;2023-12-22T04:04:00;29.98;;;4.70;;
84275;SDS011;74432;51.212;3.254;2023-12-22T04:06:26;31.50;;;4.70;;
84275;SDS011;74432;51.212;3.254;2023-12-22T04:08:52;27.92;;;5.00;;
84275;SDS011;74432;51.212;3.254;2023-12-22T04:11:18;24.80;;;4.10;;
84275;SDS011;74432;51.212;3.254;2023-12-22T04:13:43;23.30;;;5.35;;
84275;SDS011;74432;51.212;3.254;2023-12-22T04:16:09;32.72;;;4.82;;
84275;SDS011;74432;51.212;3.254;2023-12-22T04:18:34;28.85;;;5.07;;
84275;SDS011;74432;51.212;3.254;2023-12-22T04:21:00;28.83;;;4.25;;
84275;SDS011;74432;51.212;3.254;2023-12-22T04:23:26;25.17;;;4.30;;
84275;SDS011;74432;51.212;3.254;2023-12-22T04:25:52;21.58;;;4.25;;
84275;SDS011;74432;51.212;3.254;2023-12-22T04:28:18;28.80;;;4.65;;
84275;SDS011;74432;51.212;3.254;2023-12-22T04:30:43;28.15;;;4.95;;
84275;SDS011;74432;51.212;3.254;2023-12-22T04:33:09;24.92;;;4.32;;
84275;SDS011;74432;51.212;3.254;2023-12-22T04:35:35;26.52;;;4.35;;
84275;SDS011;74432;51.212;3.254;2023-12-22T04:38:00;20.13;;;3.92;;
84275;SDS011;74432;51.212;3.254;2023-12-22T04:40:26;20.90;;;3.30;;
84275;SDS011;74432;51.212;3.254;2023-12-22T04:42:53;27.00;;;4.05;;
84275;SDS011;74432;51.212;3.254;2023-12-22T04:45:18;22.95;;;4.05;;
84275;SDS011;74432;51.212;3.254;2023-12-22T04:47:44;23.38;;;3.42;;
84275;SDS011;74432;51.212;3.254;2023-12-22T04:50:10;25.55;;;3.85;;
84275;SDS011;74432;51.212;3.254;2023-12-22T04:52:35;20.17;;;3.67;;
84275;SDS011;74432;51.212;3.254;2023-12-22T04:55:01;21.52;;;3.83;;
84275;SDS011;74432;51.212;3.254;2023-12-22T04:57:27;26.20;;;4.25;;
84275;SDS011;74432;51.212;3.254;2023-12-22T04:59:52;19.00;;;4.30;;
84275;SDS011;74432;51.212;3.254;2023-12-22T05:02:18;18.85;;;3.20;;
84275;SDS011;74432;51.212;3.254;2023-12-22T05:04:44;16.35;;;2.88;;
84275;SDS011;74432;51.212;3.254;2023-12-22T05:07:09;23.70;;;3.88;;
84275;SDS011;74432;51.212;3.254;2023-12-22T05:09:35;17.45;;;3.97;;
84275;SDS011;74432;51.212;3.254;2023-12-22T05:12:01;14.98;;;3.15;;
84275;SDS011;74432;51.212;3.254;2023-12-22T05:14:27;18.98;;;3.40;;
84275;SDS011;74432;51.212;3.254;2023-12-22T05:16:53;16.55;;;2.90;;
84275;SDS011;74432;51.212;3.254;2023-12-22T05:19:20;14.55;;;2.72;;
84275;SDS011;74432;51.212;3.254;2023-12-22T05:21:46;15.38;;;2.95;;
84275;SDS011;74432;51.212;3.254;2023-12-22T05:24:14;13.95;;;2.85;;
84275;SDS011;74432;51.212;3.254;2023-12-22T05:26:40;20.38;;;3.30;;
84275;SDS011;74432;51.212;3.254;2023-12-22T05:29:05;21.77;;;3.33;;
84275;SDS011;74432;51.212;3.254;2023-12-22T05:31:33;16.80;;;3.08;;
84275;SDS011;74432;51.212;3.254;2023-12-22T05:33:59;13.75;;;3.10;;
84275;SDS011;74432;51.212;3.254;2023-12-22T05:36:25;13.07;;;2.70;;
84275;SDS011;74432;51.212;3.254;2023-12-22T05:38:50;18.77;;;2.97;;
84275;SDS011;74432;51.212;3.254;2023-12-22T05:41:16;19.58;;;3.58;;
84275;SDS011;74432;51.212;3.254;2023-12-22T05:43:42;17.92;;;3.22;;
84275;SDS011;74432;51.212;3.254;2023-12-22T05:46:07;24.13;;;3.97;;
84275;SDS011;74432;51.212;3.254;2023-12-22T05:48:34;19.08;;;3.28;;
84275;SDS011;74432;51.212;3.254;2023-12-22T05:51:00;19.58;;;3.13;;
84275;SDS011;74432;51.212;3.254;2023-12-22T05:53:28;18.15;;;3.63;;
84275;SDS011;74432;51.212;3.254;2023-12-22T05:55:54;19.10;;;4.05;;
84275;SDS011;74432;51.212;3.254;2023-12-22T05:58:19;19.80;;;4.05;;
84275;SDS011;74432;51.212;3.254;2023-12-22T06:00:45;22.75;;;3.50;;
84275;SDS011;74432;51.212;3.254;2023-12-22T06:03:11;20.27;;;3.60;;
84275;SDS011;74432;51.212;3.254;2023-12-22T06:05:36;21.55;;;3.85;;
84275;SDS011;74432;51.212;3.254;2023-12-22T06:08:02;22.13;;;3.72;;
84275;SDS011;74432;51.212;3.254;2023-12-22T06:10:28;16.05;;;2.88;;
84275;SDS011;74432;51.212;3.254;2023-12-22T06:12:54;19.42;;;3.22;;
84275;SDS011;74432;51.212;3.254;2023-12-22T06:15:19;12.80;;;3.20;;
84275;SDS011;74432;51.212;3.254;2023-12-22T06:17:45;17.15;;;4.13;;
84275;SDS011;74432;51.212;3.254;2023-12-22T06:20:11;14.20;;;2.70;;
84275;SDS011;74432;51.212;3.254;2023-12-22T06:22:36;19.35;;;3.13;;
84275;SDS011;74432;51.212;3.254;2023-12-22T06:25:02;13.77;;;2.38;;
84275;SDS011;74432;51.212;3.254;2023-12-22T06:27:32;13.45;;;2.35;;
84275;SDS011;74432;51.212;3.254;2023-12-22T06:29:58;11.75;;;2.63;;
84275;SDS011;74432;51.212;3.254;2023-12-22T06:32:24;15.93;;;3.58;;
84275;SDS011;74432;51.212;3.254;2023-12-22T06:34:50;11.18;;;2.40;;
84275;SDS011;74432;51.212;3.254;2023-12-22T06:37:15;11.68;;;2.60;;
84275;SDS011;74432;51.212;3.254;2023-12-22T06:39:41;17.23;;;3.33;;
84275;SDS011;74432;51.212;3.254;2023-12-22T06:42:07;9.85;;;2.03;;
84275;SDS011;74432;51.212;3.254;2023-12-22T06:44:37;17.92;;;3.03;;
84275;SDS011;74432;51.212;3.254;2023-12-22T06:47:03;13.77;;;2.20;;
84275;SDS011;74432;51.212;3.254;2023-12-22T06:49:30;10.30;;;2.25;;
84275;SDS011;74432;51.212;3.254;2023-12-22T06:51:55;11.27;;;2.15;;
84275;SDS011;74432;51.212;3.254;2023-12-22T06:54:21;10.02;;;2.05;;
84275;SDS011;74432;51.212;3.254;2023-12-22T06:56:50;10.80;;;2.22;;
84275;SDS011;74432;51.212;3.254;2023-12-22T06:59:16;7.65;;;1.90;;
84275;SDS011;74432;51.212;3.254;2023-12-22T07:01:41;12.55;;;2.15;;
84275;SDS011;74432;51.212;3.254;2023-12-22T07:04:07;10.68;;;2.38;;
84275;SDS011;74432;51.212;3.254;2023-12-22T07:06:33;13.40;;;2.22;;
84275;SDS011;74432;51.212;3.254;2023-12-22T07:11:40;8.68;;;2.17;;
84275;SDS011;74432;51.212;3.254;2023-12-22T07:14:07;4.13;;;2.03;;
84275;SDS011;74432;51.212;3.254;2023-12-22T07:16:36;6.70;;;1.42;;
84275;SDS011;74432;51.212;3.254;2023-12-22T07:19:02;6.32;;;1.67;;
84275;SDS011;74432;51.212;3.254;2023-12-22T07:21:29;8.52;;;1.98;;
84275;SDS011;74432;51.212;3.254;2023-12-22T07:23:54;9.93;;;2.25;;
84275;SDS011;74432;51.212;3.254;2023-12-22T07:26:21;12.80;;;2.72;;
84275;SDS011;74432;51.212;3.254;2023-12-22T07:28:49;7.28;;;2.20;;
84275;SDS011;74432;51.212;3.254;2023-12-22T07:31:15;12.77;;;2.97;;
84275;SDS011;74432;51.212;3.254;2023-12-22T07:33:41;9.27;;;2.25;;
84275;SDS011;74432;51.212;3.254;2023-12-22T07:36:07;8.57;;;3.17;;
84275;SDS011;74432;51.212;3.254;2023-12-22T07:38:32;9.15;;;2.80;;
84275;SDS011;74432;51.212;3.254;2023-12-22T07:40:58;8.02;;;2.30;;
84275;SDS011;74432;51.212;3.254;2023-12-22T07:43:24;10.93;;;2.80;;
84275;SDS011;74432;51.212;3.254;2023-12-22T07:45:50;13.32;;;2.30;;
84275;SDS011;74432;51.212;3.254;2023-12-22T07:48:19;12.95;;;2.30;;
84275;SDS011;74432;51.212;3.254;2023-12-22T07:50:44;9.90;;;2.10;;
84275;SDS011;74432;51.212;3.254;2023-12-22T07:53:10;18.90;;;2.53;;
84275;SDS011;74432;51.212;3.254;2023-12-22T07:55:36;16.10;;;2.03;;
84275;SDS011;74432;51.212;3.254;2023-12-22T07:58:03;12.23;;;2.35;;
84275;SDS011;74432;51.212;3.254;2023-12-22T08:00:29;13.38;;;2.35;;
84275;SDS011;74432;51.212;3.254;2023-12-22T08:02:55;8.95;;;1.95;;
84275;SDS011;74432;51.212;3.254;2023-12-22T08:05:21;13.40;;;3.00;;
84275;SDS011;74432;51.212;3.254;2023-12-22T08:07:46;10.45;;;2.00;;
84275;SDS011;74432;51.212;3.254;2023-12-22T08:10:12;9.13;;;2.15;;
84275;SDS011;74432;51.212;3.254;2023-12-22T08:12:37;7.43;;;1.95;;
84275;SDS011;74432;51.212;3.254;2023-12-22T08:15:03;7.22;;;1.45;;
84275;SDS011;74432;51.212;3.254;2023-12-22T08:17:30;8.40;;;2.15;;
84275;SDS011;74432;51.212;3.254;2023-12-22T08:19:56;5.55;;;2.08;;
84275;SDS011;74432;51.212;3.254;2023-12-22T08:22:22;9.40;;;1.75;;
84275;SDS011;74432;51.212;3.254;2023-12-22T08:24:48;10.80;;;1.45;;
84275;SDS011;74432;51.212;3.254;2023-12-22T08:27:14;11.23;;;2.30;;
84275;SDS011;74432;51.212;3.254;2023-12-22T08:29:40;11.43;;;2.10;;
84275;SDS011;74432;51.212;3.254;2023-12-22T08:32:05;12.55;;;2.05;;
84275;SDS011;74432;51.212;3.254;2023-12-22T08:34:31;11.95;;;1.80;;
84275;SDS011;74432;51.212;3.254;2023-12-22T08:36:57;9.88;;;2.67;;
84275;SDS011;74432;51.212;3.254;2023-12-22T08:39:23;9.07;;;2.05;;
84275;SDS011;74432;51.212;3.254;2023-12-22T08:41:52;11.13;;;1.85;;
84275;SDS011;74432;51.212;3.254;2023-12-22T08:44:18;11.00;;;1.58;;
84275;SDS011;74432;51.212;3.254;2023-12-22T08:46:44;10.10;;;1.75;;
84275;SDS011;74432;51.212;3.254;2023-12-22T08:49:09;8.27;;;1.45;;
84275;SDS011;74432;51.212;3.254;2023-12-22T08:51:35;10.10;;;1.92;;
84275;SDS011;74432;51.212;3.254;2023-12-22T08:54:01;7.97;;;2.13;;
84275;SDS011;74432;51.212;3.254;2023-12-22T08:56:27;7.70;;;1.27;;
84275;SDS011;74432;51.212;3.254;2023-12-22T08:58:53;9.63;;;1.48;;
84275;SDS011;74432;51.212;3.254;2023-12-22T09:01:24;5.82;;;1.42;;
84275;SDS011;74432;51.212;3.254;2023-12-22T09:03:50;9.32;;;2.35;;
84275;SDS011;74432;51.212;3.254;2023-12-22T09:06:16;10.65;;;1.50;;
84275;SDS011;74432;51.212;3.254;2023-12-22T09:08:42;8.18;;;2.65;;
84275;SDS011;74432;51.212;3.254;2023-12-22T09:11:10;5.82;;;1.38;;
84275;SDS011;74432;51.212;3.254;2023-12-22T09:13:37;12.77;;;1.67;;
84275;SDS011;74432;51.212;3.254;2023-12-22T09:16:03;5.70;;;1.40;;
84275;SDS011;74432;51.212;3.254;2023-12-22T09:18:30;11.45;;;2.70;;
84275;SDS011;74432;51.212;3.254;2023-12-22T09:20:56;6.53;;;1.38;;
84275;SDS011;74432;51.212;3.254;2023-12-22T09:23:22;7.35;;;1.70;;
84275;SDS011;74432;51.212;3.254;2023-12-22T09:25:48;8.55;;;1.58;;
84275;SDS011;74432;51.212;3.254;2023-12-22T09:28:14;4.90;;;1.10;;
84275;SDS011;74432;51.212;3.254;2023-12-22T09:30:40;4.53;;;1.75;;
84275;SDS011;74432;51.212;3.254;2023-12-22T09:33:06;11.48;;;1.65;;
84275;SDS011;74432;51.212;3.254;2023-12-22T09:35:35;7.45;;;1.30;;
84275;SDS011;74432;51.212;3.254;2023-12-22T09:38:01;3.58;;;1.33;;
84275;SDS011;74432;51.212;3.254;2023-12-22T09:40:28;7.85;;;1.60;;
84275;SDS011;74432;51.212;3.254;2023-12-22T09:42:54;5.60;;;1.63;;
84275;SDS011;74432;51.212;3.254;2023-12-22T09:45:21;9.23;;;1.45;;
84275;SDS011;74432;51.212;3.254;2023-12-22T09:47:50;3.85;;;1.42;;
84275;SDS011;74432;51.212;3.254;2023-12-22T09:50:19;8.88;;;1.40;;
84275;SDS011;74432;51.212;3.254;2023-12-22T09:52:46;7.57;;;2.08;;
84275;SDS011;74432;51.212;3.254;2023-12-22T09:55:14;7.35;;;1.27;;
84275;SDS011;74432;51.212;3.254;2023-12-22T09:57:40;11.05;;;1.70;;
84275;SDS011;74432;51.212;3.254;2023-12-22T10:00:10;6.93;;;1.85;;
84275;SDS011;74432;51.212;3.254;2023-12-22T10:02:38;9.07;;;1.83;;
84275;SDS011;74432;51.212;3.254;2023-12-22T10:05:05;8.45;;;1.40;;
84275;SDS011;74432;51.212;3.254;2023-12-22T10:07:31;8.38;;;1.63;;
84275;SDS011;74432;51.212;3.254;2023-12-22T10:09:58;6.75;;;1.50;;
84275;SDS011;74432;51.212;3.254;2023-12-22T10:12:27;6.05;;;1.35;;
84275;SDS011;74432;51.212;3.254;2023-12-22T10:14:55;5.32;;;1.30;;
84275;SDS011;74432;51.212;3.254;2023-12-22T10:17:22;8.65;;;2.50;;
84275;SDS011;74432;51.212;3.254;2023-12-22T10:19:48;7.32;;;1.40;;
84275;SDS011;74432;51.212;3.254;2023-12-22T10:22:14;8.13;;;1.30;;
84275;SDS011;74432;51.212;3.254;2023-12-22T10:24:43;3.83;;;1.55;;
84275;SDS011;74432;51.212;3.254;2023-12-22T10:29:38;6.10;;;1.20;;
84275;SDS011;74432;51.212;3.254;2023-12-22T10:32:05;5.32;;;1.63;;
84275;SDS011;74432;51.212;3.254;2023-12-22T10:34:32;8.23;;;1.73;;
84275;SDS011;74432;51.212;3.254;2023-12-22T10:36:58;10.88;;;2.50;;
84275;SDS011;74432;51.212;3.254;2023-12-22T10:39:31;4.88;;;1.33;;
84275;SDS011;74432;51.212;3.254;2023-12-22T10:41:57;8.85;;;1.75;;
84275;SDS011;74432;51.212;3.254;2023-12-22T10:44:28;7.60;;;1.55;;
84275;SDS011;74432;51.212;3.254;2023-12-22T10:46:54;5.72;;;1.58;;
84275;SDS011;74432;51.212;3.254;2023-12-22T10:49:27;7.20;;;1.73;;
84275;SDS011;74432;51.212;3.254;2023-12-22T10:51:53;7.30;;;1.33;;
84275;SDS011;74432;51.212;3.254;2023-12-22T10:54:19;9.35;;;1.88;;
84275;SDS011;74432;51.212;3.254;2023-12-22T10:56:45;8.40;;;1.60;;
84275;SDS011;74432;51.212;3.254;2023-12-22T10:59:10;6.35;;;1.55;;
84275;SDS011;74432;51.212;3.254;2023-12-22T11:01:37;7.43;;;1.42;;
84275;SDS011;74432;51.212;3.254;2023-12-22T11:04:07;6.63;;;1.48;;
84275;SDS011;74432;51.212;3.254;2023-12-22T11:06:41;8.07;;;1.50;;
84275;SDS011;74432;51.212;3.254;2023-12-22T11:09:08;6.45;;;1.60;;
84275;SDS011;74432;51.212;3.254;2023-12-22T11:11:35;6.63;;;1.58;;
84275;SDS011;74432;51.212;3.254;2023-12-22T11:14:02;9.70;;;1.70;;
84275;SDS011;74432;51.212;3.254;2023-12-22T11:16:30;7.57;;;2.03;;
84275;SDS011;74432;51.212;3.254;2023-12-22T11:18:58;9.48;;;2.13;;
84275;SDS011;74432;51.212;3.254;2023-12-22T11:21:25;11.82;;;3.17;;
84275;SDS011;74432;51.212;3.254;2023-12-22T11:23:52;9.00;;;1.83;;
84275;SDS011;74432;51.212;3.254;2023-12-22T11:26:18;7.70;;;2.00;;
84275;SDS011;74432;51.212;3.254;2023-12-22T11:28:46;9.02;;;1.50;;
84275;SDS011;74432;51.212;3.254;2023-12-22T11:31:13;10.15;;;2.47;;
84275;SDS011;74432;51.212;3.254;2023-12-22T11:33:49;9.65;;;2.25;;
84275;SDS011;74432;51.212;3.254;2023-12-22T11:36:16;12.23;;;2.10;;
84275;SDS011;74432;51.212;3.254;2023-12-22T11:38:43;8.60;;;1.75;;
84275;SDS011;74432;51.212;3.254;2023-12-22T11:41:21;10.68;;;1.90;;
84275;SDS011;74432;51.212;3.254;2023-12-22T11:43:51;8.93;;;1.65;;
84275;SDS011;74432;51.212;3.254;2023-12-22T11:46:17;5.20;;;1.45;;
84275;SDS011;74432;51.212;3.254;2023-12-22T11:48:50;6.88;;;1.55;;
84275;SDS011;74432;51.212;3.254;2023-12-22T11:51:17;10.63;;;2.60;;
84275;SDS011;74432;51.212;3.254;2023-12-22T11:53:44;8.70;;;2.63;;
84275;SDS011;74432;51.212;3.254;2023-12-22T11:56:10;8.23;;;1.83;;
84275;SDS011;74432;51.212;3.254;2023-12-22T12:01:16;11.75;;;1.98;;
84275;SDS011;74432;51.212;3.254;2023-12-22T12:08:52;8.70;;;2.00;;
84275;SDS011;74432;51.212;3.254;2023-12-22T12:11:19;6.78;;;1.60;;
84275;SDS011;74432;51.212;3.254;2023-12-22T12:13:45;12.55;;;1.80;;
84275;SDS011;74432;51.212;3.254;2023-12-22T12:16:12;6.28;;;1.77;;
84275;SDS011;74432;51.212;3.254;2023-12-22T12:18:40;9.20;;;2.13;;
84275;SDS011;74432;51.212;3.254;2023-12-22T12:21:06;9.45;;;1.55;;
84275;SDS011;74432;51.212;3.254;2023-12-22T12:23:33;10.30;;;1.95;;
84275;SDS011;74432;51.212;3.254;2023-12-22T12:25:59;7.55;;;1.85;;
84275;SDS011;74432;51.212;3.254;2023-12-22T12:28:26;3.60;;;1.48;;
84275;SDS011;74432;51.212;3.254;2023-12-22T12:30:59;12.25;;;1.60;;
84275;SDS011;74432;51.212;3.254;2023-12-22T12:33:27;4.70;;;1.55;;
84275;SDS011;74432;51.212;3.254;2023-12-22T12:35:54;6.57;;;1.63;;
84275;SDS011;74432;51.212;3.254;2023-12-22T12:38:28;9.32;;;1.60;;
84275;SDS011;74432;51.212;3.254;2023-12-22T12:41:07;10.05;;;1.50;;
84275;SDS011;74432;51.212;3.254;2023-12-22T12:43:36;10.15;;;1.80;;
84275;SDS011;74432;51.212;3.254;2023-12-22T12:46:05;9.07;;;2.33;;
84275;SDS011;74432;51.212;3.254;2023-12-22T12:48:31;7.25;;;1.65;;
84275;SDS011;74432;51.212;3.254;2023-12-22T12:51:03;6.63;;;1.55;;
84275;SDS011;74432;51.212;3.254;2023-12-22T12:53:33;8.85;;;2.05;;
84275;SDS011;74432;51.212;3.254;2023-12-22T12:56:01;7.30;;;1.70;;
84275;SDS011;74432;51.212;3.254;2023-12-22T12:58:29;8.63;;;1.70;;
84275;SDS011;74432;51.212;3.254;2023-12-22T13:01:09;13.40;;;2.47;;
84275;SDS011;74432;51.212;3.254;2023-12-22T13:03:53;8.40;;;1.60;;
84275;SDS011;74432;51.212;3.254;2023-12-22T13:06:19;8.90;;;1.40;;
84275;SDS011;74432;51.212;3.254;2023-12-22T13:11:24;9.80;;;1.77;;
84275;SDS011;74432;51.212;3.254;2023-12-22T13:13:55;9.82;;;2.15;;
84275;SDS011;74432;51.212;3.254;2023-12-22T13:16:22;10.55;;;2.05;;
84275;SDS011;74432;51.212;3.254;2023-12-22T13:21:20;7.78;;;1.85;;
84275;SDS011;74432;51.212;3.254;2023-12-22T13:23:46;6.15;;;1.58;;
84275;SDS011;74432;51.212;3.254;2023-12-22T13:26:21;8.02;;;1.40;;
84275;SDS011;74432;51.212;3.254;2023-12-22T13:28:46;7.72;;;2.28;;
84275;SDS011;74432;51.212;3.254;2023-12-22T13:31:12;9.55;;;2.40;;
84275;SDS011;74432;51.212;3.254;2023-12-22T13:33:41;5.45;;;1.42;;
84275;SDS011;74432;51.212;3.254;2023-12-22T13:36:07;9.05;;;1.80;;
84275;SDS011;74432;51.212;3.254;2023-12-22T13:38:33;8.77;;;1.55;;
84275;SDS011;74432;51.212;3.254;2023-12-22T13:41:02;8.82;;;2.00;;
84275;SDS011;74432;51.212;3.254;2023-12-22T13:43:31;6.60;;;1.85;;
84275;SDS011;74432;51.212;3.254;2023-12-22T13:45:57;8.82;;;1.83;;
84275;SDS011;74432;51.212;3.254;2023-12-22T13:48:23;8.07;;;1.70;;
84275;SDS011;74432;51.212;3.254;2023-12-22T13:50:56;5.55;;;1.60;;
84275;SDS011;74432;51.212;3.254;2023-12-22T13:53:23;5.82;;;1.63;;
84275;SDS011;74432;51.212;3.254;2023-12-22T13:55:59;8.18;;;1.40;;
84275;SDS011;74432;51.212;3.254;2023-12-22T13:58:25;8.77;;;1.83;;
84275;SDS011;74432;51.212;3.254;2023-12-22T14:00:52;12.07;;;2.00;;
84275;SDS011;74432;51.212;3.254;2023-12-22T14:03:21;6.10;;;1.80;;
84275;SDS011;74432;51.212;3.254;2023-12-22T14:05:49;8.77;;;2.00;;
84275;SDS011;74432;51.212;3.254;2023-12-22T14:08:15;6.20;;;2.22;;
84275;SDS011;74432;51.212;3.254;2023-12-22T14:10:47;8.68;;;1.70;;
84275;SDS011;74432;51.212;3.254;2023-12-22T14:13:16;9.48;;;1.83;;
84275;SDS011;74432;51.212;3.254;2023-12-22T14:15:42;11.15;;;2.30;;
84275;SDS011;74432;51.212;3.254;2023-12-22T14:18:09;11.90;;;2.42;;
84275;SDS011;74432;51.212;3.254;2023-12-22T14:20:35;7.30;;;1.63;;
84275;SDS011;74432;51.212;3.254;2023-12-22T14:23:00;6.97;;;1.60;;
84275;SDS011;74432;51.212;3.254;2023-12-22T14:25:27;10.07;;;1.90;;
84275;SDS011;74432;51.212;3.254;2023-12-22T14:27:52;8.25;;;2.17;;
84275;SDS011;74432;51.212;3.254;2023-12-22T14:30:22;8.93;;;2.40;;
84275;SDS011;74432;51.212;3.254;2023-12-22T14:32:48;8.65;;;1.50;;
84275;SDS011;74432;51.212;3.254;2023-12-22T14:35:14;6.30;;;1.70;;
84275;SDS011;74432;51.212;3.254;2023-12-22T14:37:40;13.07;;;2.58;;
84275;SDS011;74432;51.212;3.254;2023-12-22T14:40:06;12.20;;;2.33;;
84275;SDS011;74432;51.212;3.254;2023-12-22T14:42:32;5.65;;;2.05;;
84275;SDS011;74432;51.212;3.254;2023-12-22T14:44:57;14.40;;;2.10;;
84275;SDS011;74432;51.212;3.254;2023-12-22T14:47:23;9.52;;;2.38;;
84275;SDS011;74432;51.212;3.254;2023-12-22T14:49:49;11.20;;;2.35;;
84275;SDS011;74432;51.212;3.254;2023-12-22T14:52:14;9.23;;;2.10;;
84275;SDS011;74432;51.212;3.254;2023-12-22T14:54:40;10.25;;;2.10;;
84275;SDS011;74432;51.212;3.254;2023-12-22T14:57:06;10.38;;;2.17;;